Погода Нунгунана неделю

Кейп-Кост, Гана

03 - 09 марта
  • 03марта
    Сегодня
    +26°
    +32°
    Облачно с прояснениями
    ВремяПогодаТемператураВлажностьДавлениеВетер, м/сВероятность осадков
    00:00Облачно с прояснениями+28°C90 %753 мм1.9 м/с39 %
    03:00Облачно с прояснениями+28°C90 %752 мм1.6 м/с29 %
    06:00Облачно с прояснениями+27°C91 %753 мм1.5 м/с32 %
    09:00Облачно с прояснениями+28°C85 %754 мм1.8 м/с23 %
    12:00Облачно с прояснениями+30°C78 %753 мм2.6 м/с24 %
    15:00Облачно с прояснениями+30°C80 %751 мм3.2 м/с27 %
    18:00Облачно с прояснениями+29°C84 %752 мм2.6 м/с21 %
    21:00Облачно с прояснениями+28°C88 %753 мм1.7 м/с5 %
  • 04марта
    Понедельник
    +26°
    +32°
    Практически безоблачно
    ВремяПогодаТемператураВлажностьДавлениеВетер, м/сВероятность осадков
    00:00Небольшая облачность+28°C91 %753 мм1.6 м/с2 %
    03:00Ясно и безоблачно+28°C94 %752 мм1.2 м/с2 %
    06:00Облачно с прояснениями+26°C93 %753 мм1.0 м/с2 %
    09:00Небольшая облачность+29°C79 %754 мм1.9 м/с2 %
    12:00Практически безоблачно+32°C68 %752 мм3.2 м/с2 %
    15:00Практически безоблачно+31°C75 %751 мм4.1 м/с6 %
    18:00Ясно и безоблачно+29°C84 %750 мм3.3 м/с4 %
    21:00Ясно и безоблачно+29°C91 %752 мм2.4 м/с2 %
  • 05марта
    Вторник
    +26°
    +32°
    Практически безоблачно
    ВремяПогодаТемператураВлажностьДавлениеВетер, м/сВероятность осадков
    00:00Ясно и безоблачно+28°C93 %753 мм2.3 м/с2 %
    03:00Ясно и безоблачно+28°C93 %751 мм1.6 м/с2 %
    06:00Практически безоблачно+27°C93 %752 мм1.4 м/с2 %
    09:00Небольшая облачность+29°C76 %753 мм2.5 м/с3 %
    12:00Ясно и безоблачно+31°C74 %752 мм3.4 м/с4 %
    15:00Практически безоблачно+31°C77 %750 мм4.0 м/с20 %
    18:00Небольшая облачность+29°C88 %751 мм3.2 м/с11 %
    21:00Ясно и безоблачно+29°C91 %753 мм1.8 м/с3 %
  • 06марта
    Среда
    +26°
    +32°
    Ясно и безоблачно
    ВремяПогодаТемператураВлажностьДавлениеВетер, м/сВероятность осадков
    00:00Небольшая облачность+28°C92 %753 мм1.8 м/с2 %
    03:00Практически безоблачно+28°C95 %751 мм1.5 м/с2 %
    06:00Облачно с прояснениями+27°C93 %751 мм1.3 м/с2 %
    09:00Облачно с прояснениями+29°C80 %753 мм2.3 м/с3 %
    12:00Практически безоблачно+31°C78 %752 мм3.5 м/с4 %
    15:00Ясно и безоблачно+31°C79 %750 мм3.8 м/с15 %
    18:00Ясно и безоблачно+29°C88 %751 мм3.1 м/с4 %
    21:00Ясно и безоблачно+29°C90 %753 мм2.1 м/с2 %
  • 07марта
    Четверг
    +26°
    +33°
    Практически безоблачно
    ВремяПогодаТемператураВлажностьДавлениеВетер, м/сВероятность осадков
    00:00Ясно и безоблачно+28°C92 %753 мм1.9 м/с2 %
    03:00Облачно с прояснениями+28°C93 %752 мм1.6 м/с2 %
    06:00Облачно с прояснениями+27°C94 %752 мм1.3 м/с2 %
    09:00Облачно с прояснениями+30°C80 %753 мм2.3 м/с7 %
    12:00Ясно и безоблачно+31°C80 %752 мм3.5 м/с17 %
    15:00Практически безоблачно+31°C82 %750 мм3.8 м/с31 %
    18:00Небольшая облачность+29°C88 %752 мм3.1 м/с15 %
    21:00Облачно с прояснениями+29°C88 %754 мм2.4 м/с3 %
Мы используем cookies
Соглашаюсь